Date,TemperatureHighF,TemperatureAvgF,TemperatureLowF,DewpointHighF,DewpointAvgF,DewpointLowF,HumidityHigh,HumidityAvg,HumidityLow,PressureMaxIn,PressureMinIn,WindSpeedMaxMPH,WindSpeedAvgMPH,GustSpeedMaxMPH,PrecipitationSumIn
2013-1-1,49.3,48.2,44.4,49.0,43.6,29.0,99,86,50,30.13,29.93,4,1,9,0.44
2013-1-2,51.4,47.6,44.2,48.3,45.0,41.0,100,91,79,30.14,29.89,5,1,9,0.10
2013-1-3,44.7,39.5,30.8,41.5,35.8,-99.9,98,88,80,30.29,30.09,5,-5,9,0.00
2013-1-4,49.8,37.4,24.1,31.8,24.7,18.0,98,64,37,30.38,30.25,9,2,11,0.00
2013-1-5,47.7,38.7,24.5,32.6,24.9,20.0,88,60,38,30.41,30.25,5,1,8,0.00
2013-1-6,54.4,44.9,38.9,42.9,37.9,30.0,89,77,62,30.25,30.05,7,1,13,0.02
2013-1-7,52.3,38.6,27.7,31.0,28.9,25.8,95,70,40,30.43,30.21,8,1,10,0.00
2013-1-8,52.1,41.4,27.2,42.0,34.9,25.4,95,79,58,30.48,30.37,4,1,7,0.00
2013-1-9,63.5,52.3,39.8,53.0,47.1,37.6,95,83,64,30.45,30.37,5,0,6,0.00
2013-1-10,68.1,56.6,46.1,53.0,48.6,43.0,100,76,55,30.50,30.35,8,1,11,0.00
2013-1-11,56.6,48.7,46.5,50.0,48.1,44.6,100,98,85,30.36,30.15,5,2,8,0.18
2013-1-12,71.8,61.0,48.3,65.0,58.7,48.0,100,93,76,30.17,30.07,5,1,8,0.01
2013-1-13,70.8,64.0,57.8,63.1,60.0,57.0,100,87,72,30.12,30.03,6,2,11,0.00
2013-1-14,65.3,61.3,59.1,65.0,61.2,58.8,100,99,95,30.11,30.03,3,1,7,0.79
2013-1-15,62.7,47.7,41.9,63.0,47.3,41.0,100,99,97,30.15,30.05,9,3,12,0.19
2013-1-16,50.3,45.2,41.9,50.1,44.9,41.0,100,99,98,30.06,29.96,7,2,9,0.22
2013-1-17,51.1,47.9,34.0,51.1,47.5,33.6,100,99,95,30.19,29.77,18,4,30,2.59
2013-1-18,50.0,32.5,28.7,33.0,30.1,24.0,100,93,37,30.52,30.19,5,1,9,0.01
2013-1-19,53.8,37.8,25.0,31.0,27.9,24.0,98,71,33,30.51,30.19,4,1,10,0.00
2013-1-20,64.1,46.5,30.7,36.0,29.4,23.0,89,56,27,30.18,30.02,10,2,18,0.00
2013-1-21,60.3,42.6,27.8,33.6,26.9,15.0,94,60,27,30.09,29.92,14,2,21,0.00
2013-1-22,42.4,34.0,27.0,16.0,7.0,-4.0,51,33,15,30.27,30.02,12,2,20,0.00
2013-1-23,47.0,33.1,21.7,28.1,17.2,6.3,74,53,32,30.37,30.08,9,1,15,0.00
2013-1-24,49.3,39.2,25.1,32.4,22.7,6.0,76,54,21,30.50,29.98,14,4,17,0.00
2013-1-25,27.5,24.4,20.2,25.1,15.2,6.0,94,69,45,30.52,30.14,6,0,7,0.04
2013-1-26,48.4,27.6,24.0,36.8,26.1,22.5,98,94,48,30.38,30.13,4,0,5,0.07
2013-1-27,45.6,33.2,26.1,32.0,27.6,24.4,97,82,49,30.58,30.37,7,1,9,0.00
2013-1-28,51.5,41.4,35.9,46.0,34.5,29.8,94,76,66,30.49,30.26,5,1,11,0.00
2013-1-29,70.8,62.0,42.1,59.0,55.9,42.0,100,81,66,30.26,30.01,12,1,12,0.00
2013-1-30,71.2,64.7,48.7,63.0,60.6,45.0,97,87,69,30.01,29.43,10,3,19,1.22
2013-1-31,50.3,42.0,36.2,45.3,29.9,18.3,89,64,32,30.03,29.52,15,4,22,0.00
2013-2-1,40.4,34.8,25.1,27.0,20.5,10.4,62,56,45,30.38,29.95,9,3,17,0.00
2013-2-2,44.8,32.0,21.2,35.0,16.2,10.9,85,55,29,30.41,30.06,9,2,17,0.00
2013-2-3,53.0,42.2,31.5,35.0,28.2,20.0,93,61,30,30.05,29.87,17,5,24,0.00
2013-2-4,51.7,39.5,27.0,28.0,24.1,20.0,82,56,34,30.15,30.01,3,1,7,0.00
2013-2-5,65.1,46.1,35.1,43.0,33.0,28.0,85,62,38,30.01,29.88,7,1,15,0.00
2013-2-6,64.3,50.1,35.9,41.0,30.5,20.0,96,54,19,30.20,29.98,6,1,10,0.00
2013-2-7,43.9,40.2,38.7,39.0,37.4,25.0,96,90,49,30.27,30.01,13,5,17,0.95
2013-2-8,59.0,51.5,37.4,49.0,36.0,27.0,98,56,42,30.12,29.88,15,5,18,0.01
2013-2-9,61.1,41.2,30.9,27.8,24.3,17.7,77,55,19,30.33,30.11,6,2,9,0.00
2013-2-10,58.0,37.3,33.7,45.0,26.9,23.0,96,67,28,30.44,30.18,4,0,7,0.20
2013-2-11,56.6,50.2,43.2,56.0,49.7,42.0,100,98,96,30.16,29.96,5,1,12,0.14
2013-2-12,58.7,46.8,40.7,50.0,39.7,27.8,100,80,33,30.10,29.88,5,1,9,0.08
2013-2-13,48.3,43.6,39.3,46.0,42.2,32.0,98,95,70,29.94,29.67,6,1,12,0.06
2013-2-14,52.3,40.3,28.4,35.0,32.3,27.0,97,75,49,30.07,29.88,5,1,10,0.00
2013-2-15,62.9,44.7,28.3,39.0,32.4,27.0,99,69,31,30.11,29.93,10,2,17,0.00
2013-2-16,46.0,38.4,29.3,33.2,30.2,18.0,94,73,55,30.02,29.83,9,2,14,0.01
2013-2-17,42.5,27.9,20.8,20.0,14.6,9.0,76,59,26,30.28,30.03,14,2,19,0.02
2013-2-18,56.7,38.4,21.7,28.0,21.7,11.0,84,54,31,30.39,30.22,7,1,9,0.00
2013-2-19,52.2,42.2,35.8,44.0,32.7,14.0,97,72,27,30.22,29.88,12,2,19,0.22
2013-2-20,56.3,41.8,27.6,22.0,15.2,3.0,70,37,12,30.12,30.02,7,2,13,0.00
2013-2-21,59.8,41.7,25.0,40.0,18.5,9.3,91,42,19,30.25,30.09,6,1,8,0.06
2013-2-22,41.3,38.7,37.2,39.0,37.5,37.0,98,95,89,30.31,30.12,5,2,10,0.39
2013-2-23,44.5,40.2,36.4,43.0,39.5,36.0,98,97,93,30.15,29.86,4,2,9,0.46
2013-2-24,64.1,49.8,39.8,43.0,35.9,23.0,100,66,24,30.02,29.86,9,2,12,0.00
2013-2-25,44.6,41.2,38.5,30.0,27.7,26.0,66,59,53,30.17,30.00,7,3,17,0.00
2013-2-26,40.5,36.0,32.7,41.0,34.7,28.0,100,95,66,30.08,29.61,11,3,18,1.56
2013-2-27,57.4,47.3,32.5,41.0,37.7,32.0,100,71,50,29.82,29.66,10,3,14,0.00
2013-2-28,49.2,41.6,33.0,34.0,28.4,24.0,87,62,40,29.90,29.72,19,4,23,0.00
2013-3-1,48.3,38.5,25.8,31.0,27.9,23.0,92,67,47,29.95,29.87,8,2,12,0.00
2013-3-2,47.3,38.7,29.3,39.0,30.7,22.0,96,74,51,29.95,29.83,8,2,15,0.08
2013-3-3,46.4,28.5,22.9,23.0,20.6,16.0,88,75,34,30.03,29.90,13,2,19,0.00
2013-3-4,56.7,48.2,25.4,22.0,17.5,14.0,71,33,20,30.16,30.02,10,3,13,0.00
2013-3-5,51.2,44.9,40.4,45.0,37.0,21.0,97,76,42,30.07,29.63,9,1,17,0.59
2013-3-6,47.1,40.0,30.1,41.4,27.9,21.0,97,63,42,30.13,29.64,28,7,31,0.01
2013-3-7,57.8,39.7,25.2,31.0,26.3,23.0,93,64,33,30.28,30.13,8,2,12,0.01
2013-3-8,59.7,43.8,25.8,27.0,23.5,20.0,87,48,23,30.33,30.21,9,2,15,0.00
2013-3-9,64.8,46.8,29.4,36.0,29.1,24.0,84,54,26,30.36,30.23,7,1,10,0.00
2013-3-10,69.1,52.3,36.3,39.0,35.2,32.0,88,56,28,30.29,30.15,5,1,11,0.00
2013-3-11,69.6,50.6,41.8,55.0,39.8,33.0,97,67,50,30.18,29.84,6,1,14,0.24
2013-3-12,68.1,60.2,47.1,57.0,41.5,24.7,99,58,20,29.97,29.72,9,4,16,0.30
2013-3-13,56.7,44.9,35.8,31.0,25.2,19.0,79,49,27,30.16,29.98,16,4,21,0.00
2013-3-14,53.0,37.8,29.9,23.0,17.9,13.0,57,46,23,30.31,30.17,11,3,18,0.00
2013-3-15,69.2,47.7,28.4,41.0,29.2,18.0,77,51,31,30.21,29.90,8,2,13,0.00
2013-3-16,78.1,65.7,54.6,48.0,43.9,41.0,63,47,32,29.90,29.70,10,4,21,0.00
2013-3-17,79.0,63.9,45.6,53.2,45.4,40.0,80,52,30,30.06,29.82,10,2,17,0.00
2013-3-18,45.6,42.0,39.9,42.0,39.1,38.0,98,89,80,30.11,29.86,9,4,16,0.95
2013-3-19,64.3,42.4,40.0,45.0,38.5,16.0,100,91,17,30.05,29.85,15,2,26,0.00
2013-3-20,58.4,49.4,42.6,22.0,16.4,10.0,36,27,19,30.11,29.79,12,3,15,0.00
2013-3-21,46.3,35.3,27.4,28.8,16.6,9.5,63,47,27,29.98,29.81,15,3,18,0.00
2013-3-22,53.1,32.3,24.2,26.0,16.8,13.0,77,54,26,30.10,29.97,7,1,16,0.00
2013-3-23,56.5,41.7,39.1,43.0,33.0,25.0,94,73,47,30.06,29.89,3,0,5,0.02
2013-3-24,43.2,41.2,39.2,42.0,39.9,38.0,97,95,90,29.93,29.56,15,4,22,0.90
2013-3-25,46.8,39.5,37.1,39.0,35.4,20.0,99,88,37,29.91,29.56,17,2,25,0.04
2013-3-26,48.6,39.0,29.0,27.0,23.7,22.0,78,56,39,30.20,29.90,10,4,19,0.00
2013-3-27,54.3,41.2,29.6,26.0,23.0,21.0,73,50,33,30.27,30.18,13,4,16,0.00
2013-3-28,58.5,48.7,26.4,28.8,23.7,18.2,86,39,23,30.33,30.19,10,3,15,0.00
2013-3-29,63.0,39.4,27.5,40.0,25.9,23.7,88,64,23,30.36,30.19,9,1,14,0.00
2013-3-30,65.4,47.0,44.2,47.0,42.9,39.0,98,87,42,30.24,30.03,7,1,9,0.23
2013-3-31,71.1,57.2,49.7,59.0,52.0,45.0,99,84,54,30.03,29.80,9,2,17,0.28
2013-4-1,71.5,60.6,51.8,55.0,44.9,36.0,98,62,28,29.95,29.82,12,4,21,0.01
2013-4-2,65.7,54.7,39.8,36.0,30.9,17.0,78,43,17,30.14,29.95,10,3,19,0.00
2013-4-3,61.0,57.6,43.3,29.0,25.0,18.0,44,29,23,30.27,30.10,9,2,14,0.00
2013-4-4,49.3,39.4,36.4,38.3,34.4,23.0,95,85,41,30.25,29.99,11,5,17,0.90
2013-4-5,67.3,59.9,37.3,46.0,39.8,35.5,99,50,34,30.05,29.90,8,3,11,0.01
2013-4-6,72.1,61.2,36.9,43.0,36.6,33.0,94,43,25,30.22,30.05,7,2,12,0.00
2013-4-7,72.8,56.9,42.7,50.0,43.3,40.0,91,62,38,30.24,30.08,6,2,15,0.00
2013-4-8,79.1,59.6,49.9,59.0,50.1,46.0,97,72,40,30.15,30.03,7,1,13,0.00
2013-4-9,83.6,69.4,53.3,60.6,55.0,50.6,95,63,38,30.17,30.05,10,2,13,0.00
2013-4-10,86.1,63.5,57.6,61.0,56.2,55.0,94,78,37,30.08,29.91,7,1,13,0.00
2013-4-11,81.6,68.2,58.4,67.0,59.7,56.0,97,75,50,29.94,29.70,7,1,15,0.00
2013-4-12,81.1,69.3,60.4,67.0,55.1,38.0,100,67,28,29.79,29.61,8,3,19,0.00
2013-4-13,78.3,61.2,43.1,44.0,38.8,31.0,91,49,19,30.00,29.80,6,1,9,0.00
2013-4-14,76.4,60.8,45.2,54.0,45.2,39.0,85,59,33,30.07,29.97,5,1,7,0.66
2013-4-15,67.5,59.9,55.8,61.0,56.8,54.0,97,89,78,30.18,29.96,7,2,12,0.06
2013-4-16,80.2,63.1,56.0,63.0,57.6,55.0,97,84,48,30.27,30.15,5,2,9,0.00
2013-4-17,80.9,66.0,57.3,64.0,59.4,56.0,97,80,51,30.22,30.08,9,1,14,0.00
2013-4-18,81.1,68.9,59.8,64.0,61.0,59.0,97,78,50,30.13,29.94,4,1,11,0.00
2013-4-19,75.5,65.0,53.0,67.0,61.4,51.0,96,88,71,29.94,29.72,11,2,19,0.30
2013-4-20,65.6,53.0,40.6,51.0,39.6,29.0,93,65,27,30.26,29.88,8,3,13,0.00
2013-4-21,64.1,53.3,41.9,44.0,40.4,32.0,80,62,44,30.43,30.25,9,2,17,0.00
2013-4-22,64.9,47.9,42.5,42.0,36.6,32.0,85,67,30,30.43,30.21,15,6,16,0.00
2013-4-23,73.8,56.3,42.2,52.0,44.1,35.0,82,65,40,30.27,30.09,7,1,10,0.00
2013-4-24,73.9,61.4,49.0,59.0,54.2,48.0,98,79,55,30.12,29.98,7,2,15,0.00
2013-4-25,73.1,60.3,50.6,58.0,44.4,34.0,95,60,27,30.26,30.03,10,2,14,0.00
2013-4-26,72.1,58.5,42.8,47.0,38.2,32.0,78,50,27,30.42,30.27,7,1,14,0.00
2013-4-27,63.7,56.5,53.5,56.0,51.5,44.0,98,84,60,30.34,30.23,3,1,7,0.54
2013-4-28,55.3,54.4,53.3,55.0,54.0,52.8,100,99,98,30.24,30.03,13,3,13,2.19
2013-4-29,74.3,61.5,55.0,63.0,58.6,55.0,100,91,62,30.05,29.91,4,1,8,0.11
2013-4-30,75.5,63.6,55.1,64.0,59.3,55.0,100,87,62,30.15,29.96,6,2,12,0.00
2013-5-1,65.6,59.6,52.1,58.0,55.7,51.0,99,87,74,30.27,30.15,10,3,14,0.00
2013-5-2,62.0,58.2,55.9,58.0,56.4,55.0,99,93,86,30.28,30.21,8,3,12,0.12
2013-5-3,65.9,60.0,55.3,56.0,54.0,51.0,97,81,66,30.22,30.08,17,4,22,0.00
2013-5-4,60.6,56.6,50.1,52.4,50.2,44.0,91,79,70,30.10,29.96,16,6,20,0.00
2013-5-5,58.6,52.6,49.6,58.0,51.9,49.0,99,97,93,30.02,29.80,15,4,18,2.58
2013-5-6,69.3,60.4,52.0,60.0,54.3,48.0,100,82,49,29.88,29.81,5,1,11,0.81
2013-5-7,71.7,56.6,44.1,55.0,49.8,43.0,99,81,43,29.93,29.84,8,1,13,0.01
2013-5-8,74.6,62.8,49.2,60.0,54.9,49.0,100,78,48,29.99,29.90,11,1,12,0.01
2013-5-9,82.4,69.5,50.9,62.0,56.6,50.0,100,67,39,30.07,29.98,6,1,8,0.00
2013-5-10,82.0,68.0,54.5,65.0,60.2,54.0,100,79,48,30.05,29.93,14,1,15,0.00
2013-5-11,79.0,69.4,61.6,66.0,62.2,57.0,95,79,56,29.94,29.77,8,2,20,0.00
2013-5-12,73.0,62.7,50.5,61.0,45.3,24.0,96,60,17,30.03,29.82,19,3,19,0.01
2013-5-13,69.4,54.8,39.8,40.0,35.7,29.0,90,54,22,30.17,30.03,8,2,17,0.00
2013-5-14,74.8,59.0,40.7,50.0,42.1,35.0,91,56,34,30.25,30.06,5,1,11,0.00
2013-5-15,89.6,75.5,52.2,65.2,58.9,48.0,95,60,40,30.07,29.91,5,1,10,0.00
2013-5-16,82.7,71.2,58.2,66.0,59.4,54.0,87,68,42,29.99,29.92,7,1,9,0.00
2013-5-17,85.9,72.8,59.1,68.0,61.8,54.0,87,70,46,30.05,29.97,4,0,7,0.00
2013-5-18,70.8,67.1,63.5,66.0,62.1,59.0,86,84,79,30.11,30.03,3,0,5,0.23
2013-5-19,77.4,69.2,65.1,71.0,63.9,59.0,86,83,76,30.09,29.98,2,0,5,0.02
2013-5-20,83.6,71.6,64.9,71.0,64.7,59.0,87,79,58,30.11,29.97,4,0,7,0.34
2013-5-21,88.9,73.5,64.3,73.0,65.7,58.0,87,77,54,30.02,29.90,4,1,9,0.00
2013-5-22,85.7,72.2,64.0,72.0,64.1,58.0,86,76,59,29.98,29.84,14,1,16,0.67
2013-5-23,80.8,68.7,63.3,72.0,63.0,58.0,87,82,66,29.96,29.79,4,1,9,0.35
2013-5-24,72.6,65.9,52.2,60.5,50.5,38.8,87,61,30,30.18,29.86,21,6,21,1.29
2013-5-25,79.2,60.6,41.5,54.0,45.2,38.0,88,61,32,30.29,30.14,6,1,9,0.00
2013-5-26,76.9,64.1,55.3,57.0,50.3,43.0,84,63,42,30.27,30.15,6,1,8,0.00
2013-5-27,83.6,66.8,51.9,64.0,54.4,-99.9,86,68,44,30.25,30.11,3,0,7,0.00
2013-5-28,84.7,72.5,61.5,68.0,62.8,56.0,86,73,52,30.20,30.11,4,0,9,0.00
2013-5-29,85.6,72.6,59.4,67.0,61.7,54.0,85,70,47,30.21,30.12,4,1,9,0.00
2013-5-30,85.7,72.4,60.4,69.0,62.7,55.0,85,73,47,30.25,30.13,4,1,9,0.00
2013-5-31,86.7,74.8,64.9,70.0,65.2,60.0,85,73,49,30.20,30.07,4,1,10,0.00
2013-6-1,86.6,75.9,66.8,69.0,66.0,62.0,85,73,50,30.10,29.97,6,1,10,0.00
2013-6-2,79.7,72.9,66.4,72.0,66.8,60.0,85,81,73,30.01,29.87,3,1,7,0.27
2013-6-3,83.6,72.5,65.7,74.0,66.0,60.0,87,80,68,29.93,29.81,4,1,6,0.56
2013-6-4,83.8,72.4,64.6,70.0,64.7,59.0,87,78,58,30.03,29.91,6,2,10,0.07
2013-6-5,80.9,71.6,65.9,72.0,66.4,61.0,87,83,72,30.07,29.93,5,1,10,0.05
2013-6-6,76.5,71.8,68.1,72.0,67.1,63.0,87,85,81,29.95,29.77,6,0,8,0.32
2013-6-7,83.9,71.8,66.9,76.0,66.3,62.0,88,83,70,29.80,29.63,6,2,12,0.26
2013-6-8,85.8,73.7,66.7,72.0,66.3,61.0,88,78,58,30.05,29.80,5,1,8,0.01
2013-6-9,86.6,72.9,66.0,75.0,67.0,61.0,88,82,60,30.11,30.00,4,0,7,0.24
2013-6-10,79.2,72.2,67.2,73.0,67.3,63.0,89,85,74,30.04,29.87,7,1,13,0.27
2013-6-11,88.2,75.2,66.8,70.0,64.9,62.0,89,72,44,29.96,29.89,7,2,12,0.01
2013-6-12,91.2,73.7,63.7,77.0,64.3,-99.9,89,78,54,29.98,29.85,5,0,7,0.00
2013-6-13,91.6,79.0,70.8,74.0,69.7,65.0,89,74,51,29.85,29.63,7,2,20,0.00
2013-6-14,82.8,73.1,60.8,65.0,57.4,53.0,82,60,38,30.00,29.74,12,3,18,0.00
2013-6-15,83.6,71.0,56.5,65.0,60.2,53.0,89,70,47,30.11,30.00,5,1,9,0.01
2013-6-16,85.2,74.5,64.3,70.0,65.5,60.0,89,75,51,30.11,29.98,6,1,10,0.00
2013-6-17,84.3,74.3,69.7,74.0,68.8,65.0,88,83,71,30.00,29.91,5,1,9,0.16
2013-6-18,83.3,72.6,67.8,75.0,68.2,64.0,90,86,72,29.92,29.76,6,1,16,0.30
2013-6-19,81.1,72.9,65.3,70.0,65.7,62.0,91,79,60,30.07,29.87,6,1,9,0.00
2013-6-20,82.4,72.4,64.0,71.0,65.7,60.0,90,80,58,30.20,30.07,6,1,10,0.00
2013-6-21,83.1,71.9,61.5,68.0,63.4,58.0,90,76,53,30.25,30.14,8,1,9,0.00
2013-6-22,84.6,72.3,60.5,69.0,63.8,57.0,90,76,50,30.20,30.08,7,1,12,0.00
2013-6-23,85.9,74.1,64.7,74.0,67.6,61.0,90,81,60,30.18,30.08,4,1,6,0.02
2013-6-24,87.3,75.2,67.1,76.0,69.5,64.0,90,83,63,30.18,30.07,6,1,8,0.04
2013-6-25,88.4,74.6,67.5,74.0,68.6,64.0,91,83,55,30.11,29.98,9,1,14,1.84
2013-6-26,88.4,75.5,67.1,77.0,70.6,64.0,92,85,62,30.01,29.88,6,1,8,0.00
2013-6-27,88.5,77.2,71.9,79.0,72.6,69.0,92,86,64,29.91,29.69,10,1,11,0.17
2013-6-28,90.6,78.0,68.5,77.0,71.2,66.0,92,81,56,29.74,29.54,9,1,18,0.23
2013-6-29,86.1,76.1,68.4,75.0,70.2,65.0,93,83,57,29.68,29.59,4,1,9,0.00
2013-6-30,84.5,73.4,67.3,74.0,68.7,65.0,92,86,57,29.81,29.66,3,1,7,0.03
2013-7-1,82.2,73.6,67.7,75.0,69.4,65.0,92,86,70,29.93,29.79,4,1,8,0.00
2013-7-2,80.3,73.5,70.5,75.0,70.7,68.0,92,91,81,30.11,29.93,6,1,7,0.43
2013-7-3,78.8,73.2,67.3,75.0,70.6,65.0,93,91,86,30.19,30.08,3,0,8,1.43
2013-7-4,84.0,72.8,67.9,77.0,70.0,66.0,94,91,74,30.20,30.11,5,1,13,2.01
2013-7-5,81.6,73.1,69.6,77.0,70.9,68.0,94,92,83,30.21,30.15,6,1,11,2.88
2013-7-6,85.1,74.4,70.2,77.0,71.4,68.0,95,91,69,30.20,30.07,2,0,7,0.20
2013-7-7,84.6,76.4,72.2,77.0,73.2,70.0,95,90,76,30.15,30.03,3,0,9,0.02
2013-7-8,84.1,76.2,70.9,78.0,72.7,69.0,95,89,74,30.16,30.07,3,0,8,0.40
2013-7-9,87.9,77.6,69.1,80.0,73.1,67.0,95,86,65,30.13,30.01,6,1,7,0.00
2013-7-10,84.1,74.5,68.8,77.0,71.4,67.0,95,90,75,30.09,29.91,5,1,13,0.33
2013-7-11,76.6,72.8,69.9,75.0,71.1,68.0,96,94,93,29.94,29.84,4,0,7,0.87
2013-7-12,82.3,73.7,68.5,74.0,70.6,67.0,96,90,74,29.98,29.85,5,2,11,0.00
2013-7-13,70.8,69.3,68.6,68.0,67.5,67.0,95,94,92,30.04,29.97,6,2,9,0.01
2013-7-14,79.5,75.4,70.9,77.0,73.7,69.0,95,94,92,30.24,30.16,1,0,4,0.26
2013-7-15,85.7,75.9,69.1,77.0,71.3,67.0,96,86,66,30.30,30.21,8,1,9,0.00
2013-7-16,88.4,78.1,68.1,78.0,72.0,67.0,96,83,56,30.28,30.17,3,0,7,0.00
2013-7-17,90.0,76.1,68.7,80.0,72.5,67.0,95,89,70,30.21,30.09,9,1,19,0.03
2013-7-18,87.1,76.0,67.1,80.0,72.2,65.0,96,88,70,30.14,30.04,3,0,5,0.00
2013-7-19,88.4,78.0,69.9,78.0,73.6,68.0,96,87,64,30.08,29.95,3,0,7,0.00
2013-7-20,83.8,75.0,70.0,78.0,72.7,68.0,96,92,79,30.00,29.91,7,1,14,0.78
2013-7-21,85.9,74.2,69.5,78.0,71.4,68.0,97,91,70,29.98,29.89,6,1,8,0.16
2013-7-22,82.9,75.2,70.4,77.0,72.4,69.0,97,91,77,29.97,29.81,4,1,8,0.01
2013-7-23,87.7,77.2,70.0,75.0,71.5,67.0,96,84,52,29.84,29.74,5,1,11,0.00
2013-7-24,87.9,78.0,69.0,79.0,72.4,68.0,96,84,58,29.79,29.71,3,1,18,0.02
2013-7-25,83.5,73.4,67.2,74.0,69.2,66.0,96,87,70,30.00,29.80,9,2,11,0.00
2013-7-26,84.0,74.1,66.1,74.0,69.7,65.0,96,87,67,30.07,29.97,4,0,6,0.00
2013-7-27,77.6,72.8,69.1,75.0,71.3,68.0,96,95,88,29.99,29.88,10,1,13,1.14
2013-7-28,83.8,74.4,68.2,76.0,70.9,67.0,97,89,70,29.97,29.89,4,1,8,0.00
2013-7-29,84.3,74.2,64.9,74.0,68.5,64.0,97,84,60,30.13,29.97,5,1,6,0.00
2013-7-30,83.0,73.6,65.4,74.0,68.7,63.0,96,85,66,30.19,30.10,3,1,10,0.00
2013-7-31,79.1,72.7,70.0,76.0,70.8,69.0,96,94,85,30.13,29.96,3,0,6,0.16
2013-8-1,83.9,74.7,70.6,77.0,72.1,69.0,97,92,74,29.96,29.85,5,1,10,0.54
2013-8-2,84.4,75.2,67.7,76.0,70.6,66.0,96,86,64,30.00,29.89,4,1,8,0.00
2013-8-3,86.5,77.2,71.0,76.0,71.9,68.0,96,84,57,29.99,29.91,4,1,9,0.00
2013-8-4,86.0,76.2,68.0,75.0,70.6,67.0,96,84,59,29.99,29.89,6,1,11,0.00
2013-8-5,82.3,73.9,67.5,74.0,69.6,66.0,95,87,70,30.04,29.94,3,1,6,0.00
2013-8-6,74.0,71.1,67.7,72.0,69.5,66.0,96,94,88,30.03,29.94,3,0,6,0.50
2013-8-7,81.5,74.5,69.8,77.0,72.0,68.0,96,92,74,30.06,29.98,3,0,5,0.00
2013-8-8,84.9,76.1,70.3,79.0,73.4,69.0,97,91,74,30.03,29.96,8,1,9,0.11
2013-8-9,88.2,77.0,72.1,80.0,73.7,70.0,97,90,70,30.04,29.97,5,1,10,0.01
2013-8-10,89.0,76.8,71.6,81.0,73.9,70.0,96,90,69,30.08,30.01,7,1,21,0.02
2013-8-11,88.6,76.1,68.9,79.0,72.2,68.0,96,88,63,30.10,30.01,5,1,9,0.01
2013-8-12,88.8,77.5,70.1,79.0,73.3,68.0,96,87,65,30.04,29.92,4,1,7,0.00
2013-8-13,87.1,76.2,70.8,78.0,72.3,69.0,96,88,64,29.93,29.77,8,1,10,0.13
2013-8-14,78.7,71.1,64.8,70.0,66.6,63.0,96,86,66,30.04,29.84,5,1,9,0.00
2013-8-15,74.1,66.0,59.9,63.0,60.7,59.0,95,84,63,30.13,30.04,9,2,10,0.00
2013-8-16,71.4,64.3,59.6,65.0,61.3,58.0,95,90,77,30.15,30.07,5,1,9,0.02
2013-8-17,67.4,63.9,61.4,64.0,61.8,60.0,95,93,88,30.18,30.11,6,2,11,0.21
2013-8-18,79.3,70.0,64.0,73.0,67.2,62.0,96,91,78,30.20,30.11,4,1,7,0.07
2013-8-19,77.1,70.6,67.2,73.0,68.3,66.0,96,92,78,30.17,30.06,6,1,8,0.71
2013-8-20,77.8,71.7,66.2,74.0,69.4,65.0,96,92,83,30.17,30.09,3,0,3,0.00
2013-8-21,79.7,72.5,69.7,76.0,70.8,68.0,96,94,87,30.21,30.09,4,1,8,1.36
2013-8-22,86.3,75.5,69.0,77.0,71.2,68.0,96,87,63,30.13,29.99,4,1,7,0.00
2013-8-23,86.1,71.7,65.5,76.0,68.3,64.0,95,89,62,30.04,29.94,3,0,10,0.70
2013-8-24,80.4,70.0,62.1,67.0,63.8,61.0,96,82,56,30.27,30.05,10,2,14,0.00
2013-8-25,79.9,67.8,59.1,69.0,62.0,57.0,95,83,51,30.37,30.26,7,1,13,0.00
2013-8-26,80.8,68.2,56.9,70.0,62.6,55.0,96,83,57,30.30,30.10,3,0,5,0.00
2013-8-27,85.9,72.8,62.2,76.0,67.9,61.0,95,85,60,30.13,29.97,4,1,6,0.00
2013-8-28,85.9,75.7,66.9,77.0,71.4,65.0,95,87,67,30.00,29.90,1,0,1,0.00
2013-8-29,90.5,78.6,69.7,78.0,72.8,68.0,95,84,57,29.94,29.85,6,1,11,0.00
2013-8-30,83.8,75.6,71.2,75.0,71.6,69.0,95,88,67,30.02,29.90,0,0,0,0.03
2013-8-31,87.7,73.4,67.5,79.0,70.1,66.0,95,90,68,29.94,29.83,11,0,19,1.65
2013-9-1,86.7,72.7,66.0,79.0,69.9,64.0,95,91,71,29.89,29.77,13,1,24,0.78
2013-9-2,86.3,75.0,67.2,79.0,71.9,66.0,96,90,69,29.88,29.78,6,0,8,0.00
2013-9-3,87.1,76.3,68.9,73.0,69.8,65.0,96,82,51,29.94,29.78,5,1,11,0.00
2013-9-4,82.1,72.2,64.0,73.0,67.1,62.0,95,85,62,30.07,29.94,6,1,8,0.00
2013-9-5,84.9,72.6,64.4,74.0,67.0,63.0,95,84,50,30.10,30.02,4,0,7,0.00
2013-9-6,80.6,70.8,61.9,69.0,64.5,61.0,95,82,58,30.16,30.05,8,1,10,0.00
2013-9-7,81.5,69.9,61.1,71.0,65.3,59.0,95,86,62,30.12,29.96,4,0,7,0.00
2013-9-8,84.1,72.1,61.7,74.0,67.3,60.0,95,86,60,29.97,29.90,4,0,7,0.00
2013-9-9,86.1,74.1,65.3,74.0,68.6,64.0,96,84,57,30.11,29.97,5,1,7,0.00
2013-9-10,86.0,74.3,65.7,74.0,69.4,64.0,95,85,60,30.21,30.11,1,0,2,0.00
2013-9-11,86.4,74.6,65.1,77.0,69.3,63.0,95,85,58,30.19,30.05,4,0,9,0.00
2013-9-12,85.2,73.1,66.3,77.0,69.8,65.0,95,90,68,30.06,29.83,3,0,10,0.01
2013-9-13,83.2,72.4,65.0,69.0,63.5,53.0,95,75,51,29.88,29.76,7,2,10,0.00
2013-9-14,75.9,64.5,55.7,62.0,56.1,52.0,93,75,56,30.10,29.88,8,2,13,0.00
2013-9-15,78.2,65.9,56.5,68.0,61.8,55.0,95,87,66,30.20,30.09,5,1,7,0.00
2013-9-16,83.0,71.5,61.5,70.0,64.5,60.0,95,80,51,30.13,30.03,5,1,12,0.00
2013-9-17,73.3,67.3,62.5,63.0,59.5,57.0,86,76,62,30.28,30.14,10,2,13,0.00
2013-9-18,73.5,65.2,58.9,64.0,58.8,55.0,91,80,62,30.28,30.14,6,1,8,0.00
2013-9-19,79.6,67.9,59.3,69.0,62.7,58.0,95,84,62,30.17,30.06,4,0,7,0.00
2013-9-20,84.4,70.9,60.4,71.0,65.8,59.0,95,85,58,30.07,29.89,5,1,8,0.00
2013-9-21,72.0,67.7,64.1,71.0,66.3,63.0,96,95,93,29.90,29.66,10,1,15,1.99
2013-9-22,76.4,65.3,56.6,63.0,58.8,55.0,96,81,50,29.89,29.69,8,1,12,0.01
2013-9-23,73.7,63.7,56.6,63.0,58.6,54.0,95,84,62,30.04,29.89,6,1,9,0.00
2013-9-24,74.4,64.4,56.3,65.0,60.4,55.0,95,87,67,30.06,29.92,4,0,6,0.00
2013-9-25,69.3,63.4,61.1,65.0,61.5,59.0,96,93,79,29.92,29.85,2,0,5,0.44
2013-9-26,75.5,64.1,55.2,63.0,58.3,54.0,96,83,53,30.02,29.86,7,1,10,0.00
2013-9-27,75.4,62.6,53.1,61.0,56.6,52.0,96,82,56,30.16,30.02,7,1,10,0.00
2013-9-28,71.7,60.8,52.3,59.0,55.3,51.0,95,83,59,30.24,30.14,9,1,12,0.00
2013-9-29,72.9,61.3,52.8,62.0,56.4,51.0,95,85,61,30.17,30.02,5,1,8,0.00
2013-9-30,74.8,62.9,54.0,61.0,56.9,52.0,95,82,55,30.09,29.98,1,0,1,0.00
2013-10-1,79.1,65.2,53.4,65.0,58.5,52.0,94,81,47,30.13,30.02,6,0,9,0.00
2013-10-2,80.7,66.0,54.8,67.0,60.1,53.0,95,83,52,30.14,30.05,4,0,6,0.00
2013-10-3,80.9,67.6,57.5,68.0,61.8,56.0,94,83,52,30.12,30.04,0,0,8,0.00
2013-10-4,82.5,68.5,58.1,69.0,63.3,56.0,94,84,55,30.13,30.05,4,0,7,0.00
2013-10-5,83.6,69.5,59.4,71.0,64.2,57.0,95,84,57,30.12,30.01,4,0,5,0.00
2013-10-6,80.8,69.2,60.2,70.0,64.4,58.0,95,85,60,30.02,29.86,3,0,7,0.00
2013-10-7,75.4,68.7,61.9,71.0,64.7,55.0,95,87,73,29.97,29.78,8,2,12,2.08
2013-10-8,69.4,61.4,55.4,56.0,51.1,48.0,80,70,57,30.18,29.97,9,4,17,0.00
2013-10-9,71.6,59.0,50.9,53.0,48.9,46.0,89,71,46,30.21,30.10,11,3,16,0.00
2013-10-10,77.0,60.2,45.6,63.0,53.6,44.0,95,81,51,30.12,29.97,8,1,11,0.00
2013-10-11,78.5,64.5,53.5,65.0,57.8,52.0,95,81,50,29.99,29.89,7,1,8,0.00
2013-10-12,73.3,63.4,53.8,65.0,59.5,52.0,95,87,67,30.07,29.95,4,0,6,0.00
2013-10-13,73.0,65.9,62.2,66.0,62.5,61.0,95,89,74,30.19,30.07,8,2,12,0.01
2013-10-14,71.3,64.7,59.8,63.0,61.0,58.0,94,88,75,30.22,30.12,9,3,13,0.00
2013-10-15,72.0,62.5,56.7,60.0,57.1,55.0,94,83,57,30.18,30.02,8,2,11,0.00
2013-10-16,70.3,60.9,51.5,63.0,57.5,50.0,94,89,72,30.07,29.94,2,0,6,0.00
2013-10-17,68.8,63.5,58.7,66.0,61.5,57.0,95,93,87,29.96,29.84,4,0,8,0.08
2013-10-18,70.6,60.7,52.5,62.0,57.2,51.0,96,89,67,30.02,29.87,5,1,9,0.01
2013-10-19,63.0,58.4,50.3,61.0,56.8,49.0,95,94,91,29.95,29.83,3,0,8,0.02
2013-10-20,64.4,52.0,42.8,51.0,47.1,42.0,95,85,57,30.09,29.91,7,0,8,0.00
2013-10-21,66.7,53.2,40.9,57.0,49.0,40.0,96,87,64,30.15,29.99,3,0,7,0.00
2013-10-22,65.8,59.8,55.8,60.0,56.5,54.0,95,89,75,30.01,29.77,4,1,10,0.00
2013-10-23,63.2,53.1,39.9,56.0,42.6,33.0,96,71,37,30.03,29.72,16,3,22,0.00
2013-10-24,56.0,41.2,31.8,45.0,36.5,31.0,95,85,49,30.17,30.04,6,0,11,0.00
2013-10-25,53.7,43.0,35.3,41.0,34.0,29.0,95,74,40,30.39,30.17,10,2,14,0.00
2013-10-26,57.9,41.4,28.1,40.0,33.5,27.0,95,76,45,30.39,30.09,8,1,13,0.00
2013-10-27,67.3,50.9,37.7,52.0,44.6,36.0,95,81,54,30.14,30.05,3,0,8,0.00
2013-10-28,69.7,56.2,46.5,59.0,52.1,45.0,95,87,58,30.25,30.10,4,0,6,0.00
2013-10-29,71.9,58.9,49.0,58.0,53.7,47.0,95,84,56,30.33,30.22,6,1,7,0.00
2013-10-30,76.8,62.2,51.7,61.0,56.0,50.0,95,82,52,30.27,30.14,4,0,9,0.00
2013-10-31,67.0,61.8,55.1,64.0,58.4,54.0,95,89,77,30.16,29.86,2,0,6,0.00
2013-11-1,67.7,63.1,55.4,65.0,60.7,54.0,95,92,84,29.86,29.66,3,1,12,0.32
2013-11-2,67.8,54.9,45.8,57.0,47.9,39.0,96,80,39,29.98,29.71,9,1,13,0.03
2013-11-3,61.8,48.0,38.1,43.0,39.7,37.0,95,76,40,30.35,29.99,6,1,12,0.00
2013-11-4,58.7,46.1,37.0,40.0,36.5,33.0,92,72,40,30.52,30.36,9,1,12,0.00
2013-11-5,57.5,46.3,35.5,49.0,40.4,31.0,93,80,63,30.57,30.43,8,2,11,0.00
2013-11-6,70.1,56.3,49.6,56.0,51.3,48.0,95,84,58,30.43,30.12,6,2,10,0.00
2013-11-7,70.8,53.4,43.4,61.0,46.0,35.0,95,78,44,30.14,29.95,10,2,14,0.01
2013-11-8,48.1,38.0,32.9,36.0,32.8,29.0,93,82,48,30.31,30.14,10,1,10,0.00
2013-11-9,58.2,44.5,29.4,39.0,32.8,28.0,93,67,37,30.39,30.21,6,1,12,0.00
2013-11-10,71.3,53.0,37.7,43.0,36.6,32.0,94,60,25,30.23,30.11,8,1,12,0.00
2013-11-11,59.8,46.3,34.1,35.0,31.2,27.0,85,59,29,30.35,30.15,4,1,8,0.00
2013-11-12,65.6,43.5,28.8,40.0,31.8,17.0,93,67,32,30.47,30.06,15,4,27,0.00
2013-11-13,47.2,32.8,21.6,23.0,19.0,16.0,85,60,30,30.57,30.45,6,1,10,0.00
2013-11-14,56.9,37.8,22.6,27.0,23.0,20.0,91,61,26,30.50,30.35,6,0,12,0.00
2013-11-15,57.4,44.8,30.4,46.0,35.0,25.0,94,71,37,30.35,30.20,2,0,5,0.19
2013-11-16,62.3,54.3,47.7,56.0,51.7,46.0,95,91,78,30.27,30.18,4,1,7,0.01
2013-11-17,65.0,59.1,53.7,63.0,57.0,52.0,95,93,83,30.20,29.87,3,0,8,0.25
2013-11-18,74.2,62.6,47.2,64.0,48.5,30.0,95,65,24,29.98,29.82,11,3,16,0.00
2013-11-19,55.9,45.4,37.0,36.0,29.9,25.0,78,57,32,30.26,29.98,8,1,13,0.00
2013-11-20,52.6,42.5,34.7,35.0,32.2,30.0,84,68,46,30.46,30.25,11,2,15,0.00
2013-11-21,53.9,48.8,44.0,47.0,40.5,33.0,87,73,65,30.49,30.38,7,2,12,0.00
2013-11-22,62.9,55.0,48.9,59.0,53.3,47.0,95,94,87,30.41,30.11,4,1,9,0.03
2013-11-23,60.9,54.2,41.9,57.0,43.7,22.0,96,71,36,30.20,30.05,12,3,19,0.00
2013-11-24,42.5,34.4,27.4,24.0,13.4,6.0,67,44,23,30.52,30.21,11,3,19,0.00
2013-11-25,41.8,32.5,20.9,22.0,14.0,8.0,80,49,28,30.59,30.36,3,0,6,0.00
2013-11-26,44.4,37.3,32.2,43.0,34.5,24.0,95,90,61,30.35,29.63,12,2,14,3.30
2013-11-27,45.5,38.5,28.3,44.0,32.1,18.0,96,79,55,30.20,29.56,15,4,22,0.18
2013-11-28,43.7,30.8,20.1,26.0,22.1,18.0,93,72,43,30.50,30.22,4,1,7,0.00
2013-11-29,52.7,36.5,24.7,30.0,25.7,23.0,95,69,34,30.61,30.48,5,1,9,0.00
2013-11-30,46.4,36.1,29.3,28.0,25.9,24.0,85,68,44,30.65,30.39,8,2,12,0.00
2013-12-1,56.8,38.5,27.2,39.0,32.0,24.0,94,79,49,30.38,30.04,3,0,7,0.00
2013-12-2,58.6,43.9,29.8,44.0,37.0,29.0,95,79,47,30.03,29.83,3,0,5,0.00
2013-12-3,59.8,52.3,46.2,53.0,48.8,42.0,95,88,77,29.95,29.86,3,0,7,0.05
2013-12-4,60.2,56.1,52.4,59.0,54.6,51.0,96,94,94,30.06,29.93,2,0,5,0.08
2013-12-5,66.9,62.8,59.5,65.0,61.3,58.0,96,95,93,30.09,29.99,6,1,8,0.06
2013-12-6,75.1,68.1,64.9,67.0,64.4,63.0,96,88,67,30.03,29.93,7,3,19,0.02
2013-12-7,66.1,56.1,46.5,64.0,51.7,40.0,96,85,73,30.38,29.96,8,2,15,0.08
2013-12-8,46.3,38.5,34.8,40.0,36.3,34.0,96,92,77,30.41,30.27,7,3,11,0.21
2013-12-9,43.9,39.6,34.9,43.0,38.6,34.0,96,96,95,30.27,30.05,3,0,6,0.38
2013-12-10,53.1,44.4,33.7,50.0,37.8,19.0,97,80,47,30.32,29.91,8,2,14,0.20
2013-12-11,49.0,34.6,23.5,30.0,26.5,22.0,95,75,43,30.47,30.31,5,1,10,0.00
2013-12-12,47.0,34.3,26.6,28.0,21.6,11.0,93,64,25,30.44,30.30,5,1,11,0.00
2013-12-13,50.3,34.8,22.1,35.0,25.2,18.0,92,70,40,30.40,30.27,5,1,8,0.00
2013-12-14,45.9,40.0,38.5,41.0,36.8,33.0,96,88,75,30.28,29.81,11,2,14,0.85
2013-12-15,51.0,42.0,31.7,41.0,35.6,27.0,96,79,57,30.12,29.76,10,2,13,0.01
2013-12-16,56.3,40.1,27.8,39.0,32.1,26.0,95,75,44,30.18,30.09,5,1,9,0.00
2013-12-17,61.4,47.0,31.8,39.0,34.0,25.0,94,64,39,30.14,29.93,20,2,26,0.00
2013-12-18,50.2,40.3,30.6,26.0,21.7,14.0,74,50,23,30.29,30.06,8,1,17,0.00
2013-12-19,61.8,42.2,26.8,32.0,26.4,23.0,89,59,23,30.34,30.23,6,1,10,0.00
2013-12-20,60.1,49.5,39.6,49.0,42.3,31.0,91,77,64,30.24,30.14,5,1,9,0.00
2013-12-21,67.5,57.8,49.1,63.0,54.9,47.0,95,90,80,30.14,29.98,5,1,9,0.00
2013-12-22,70.6,65.2,61.8,68.0,63.4,60.0,95,94,87,30.04,29.95,9,2,17,0.99
2013-12-23,63.3,57.0,45.4,62.0,54.4,40.0,97,91,79,30.16,29.96,5,2,9,0.83
2013-12-24,46.1,38.3,29.1,39.0,28.7,18.0,91,70,43,30.44,30.15,11,3,16,0.00
2013-12-25,38.5,29.5,21.1,25.0,17.0,13.0,82,62,35,30.57,30.40,5,1,12,0.00
2013-12-26,51.2,35.9,24.8,29.0,25.1,22.0,92,68,38,30.41,30.26,4,1,5,0.00
2013-12-27,50.7,35.9,25.7,29.0,24.8,22.0,91,68,34,30.49,30.37,3,0,8,0.00
2013-12-28,51.7,37.6,24.4,40.0,30.3,22.0,95,77,44,30.43,30.15,4,1,7,0.08
2013-12-29,56.6,45.4,40.3,52.0,43.6,39.0,96,93,80,30.13,29.79,6,2,13,1.40
2013-12-30,52.3,42.8,33.8,46.0,40.4,33.0,96,91,75,30.12,29.95,3,0,5,0.00
2013-12-31,50.7,40.2,32.5,42.0,30.7,19.0,95,72,29,30.37,30.10,8,1,12,0.00
2014-1-1,48.7,37.5,28.8,35.0,30.3,26.0,92,77,51,30.40,30.16,4,0,5,0.00
2014-1-2,45.6,41.6,38.5,44.0,39.1,35.0,95,91,84,30.15,29.67,3,1,7,0.17